Time;durP1;ratioP1;P1;durP2;ratioP2;P2;SDS_P1;SDS_P2;PMS_P1;PMS_P2;Temp;Humidity;BMP_temperature;BMP_pressure;BME280_temperature;BME280_humidity;BME280_pressure;Samples;Min_cycle;Max_cycle;Signal;HPM_P1;HPM_P2
2022/08/20 00:01:15;;;;;;;8.37;7.27;;;;;;;;;;5072467;28;20478;-71
2022/08/20 00:03:42;;;;;;;8.10;7.30;;;;;;;;;;5072342;28;20479;-71
2022/08/20 00:06:11;;;;;;;8.80;7.90;;;;;;;;;;5072683;28;20451;-71
2022/08/20 00:08:39;;;;;;;7.23;6.53;;;;;;;;;;5072360;28;20483;-71
2022/08/20 00:11:07;;;;;;;15.30;8.47;;;;;;;;;;5072668;28;20462;-71
2022/08/20 00:13:37;;;;;;;7.63;6.70;;;;;;;;;;5072129;28;20475;-71
2022/08/20 00:16:04;;;;;;;8.30;6.80;;;;;;;;;;5072291;28;20459;-71
2022/08/20 00:18:32;;;;;;;8.63;7.63;;;;;;;;;;5072561;28;20801;-71
2022/08/20 00:20:59;;;;;;;9.03;7.07;;;;;;;;;;5072280;28;20460;-71
2022/08/20 00:23:27;;;;;;;7.83;7.07;;;;;;;;;;5072275;28;20475;-71
2022/08/20 00:25:54;;;;;;;8.83;7.13;;;;;;;;;;5072504;28;20444;-71
2022/08/20 00:28:21;;;;;;;8.47;7.07;;;;;;;;;;5072066;28;20452;-71
2022/08/20 00:30:49;;;;;;;8.53;7.63;;;;;;;;;;5073314;28;20440;-71
2022/08/20 00:33:17;;;;;;;8.50;7.43;;;;;;;;;;5075826;28;20475;-71
2022/08/20 00:35:46;;;;;;;8.90;7.20;;;;;;;;;;5075802;28;20474;-71
2022/08/20 00:38:13;;;;;;;7.70;7.00;;;;;;;;;;5075818;28;20443;-71
2022/08/20 00:40:42;;;;;;;8.00;6.00;;;;;;;;;;5075842;28;20454;-71
2022/08/20 00:43:25;;;;;;;9.90;6.77;;;;;;;;;;5075811;28;20880;-71
2022/08/20 00:45:56;;;;;;;7.83;6.33;;;;;;;;;;5075688;28;20971;-71
2022/08/20 00:48:23;;;;;;;7.50;6.20;;;;;;;;;;5075707;28;20918;-71
2022/08/20 00:50:50;;;;;;;7.90;6.43;;;;;;;;;;5075625;28;20491;-71
2022/08/20 00:53:18;;;;;;;9.77;6.93;;;;;;;;;;5075438;28;20483;-71
2022/08/20 00:55:45;;;;;;;7.17;6.47;;;;;;;;;;5075403;28;20451;-71
2022/08/20 00:58:12;;;;;;;9.60;6.90;;;;;;;;;;5075656;28;20828;-71
2022/08/20 01:00:41;;;;;;;7.80;6.87;;;;;;;;;;5075505;28;20846;-71
2022/08/20 01:03:11;;;;;;;9.00;8.10;;;;;;;;;;5075497;28;20996;-71
2022/08/20 01:05:39;;;;;;;7.70;6.90;;;;;;;;;;5075390;28;20513;-71
2022/08/20 01:08:06;;;;;;;6.70;6.00;;;;;;;;;;5075450;28;20462;-71
2022/08/20 01:10:35;;;;;;;8.00;7.20;;;;;;;;;;5075289;28;20487;-71
2022/08/20 01:13:07;;;;;;;7.90;6.90;;;;;;;;;;5075242;28;20822;-71
2022/08/20 01:15:34;;;;;;;14.23;7.07;;;;;;;;;;5074728;28;20467;-71
2022/08/20 01:18:01;;;;;;;9.40;8.50;;;;;;;;;;5075276;28;20455;-71
2022/08/20 01:20:31;;;;;;;9.50;7.53;;;;;;;;;;5075068;28;20447;-71
2022/08/20 01:25:54;;;;;;;9.63;6.80;;;;;;;;;;5059176;28;20550;-72
2022/08/20 01:28:23;;;;;;;11.77;8.27;;;;;;;;;;5074942;28;20447;-72
2022/08/20 01:30:50;;;;;;;8.70;7.83;;;;;;;;;;5074872;28;20487;-71
2022/08/20 01:33:18;;;;;;;8.87;6.50;;;;;;;;;;5074767;28;20478;-71
2022/08/20 01:35:45;;;;;;;11.07;7.37;;;;;;;;;;5074895;28;20460;-71
2022/08/20 01:38:12;;;;;;;8.33;7.50;;;;;;;;;;5074931;28;20455;-71
2022/08/20 01:40:48;;;;;;;10.13;8.10;;;;;;;;;;5074869;28;20448;-71
2022/08/20 01:43:16;;;;;;;8.77;7.83;;;;;;;;;;5073642;28;20847;-71
2022/08/20 01:45:43;;;;;;;8.13;7.10;;;;;;;;;;5074247;28;20470;-71
2022/08/20 01:48:11;;;;;;;9.57;7.67;;;;;;;;;;5074693;28;20455;-71
2022/08/20 01:50:40;;;;;;;10.73;7.40;;;;;;;;;;5074464;28;20499;-71
2022/08/20 01:53:12;;;;;;;9.00;7.50;;;;;;;;;;5074569;28;20474;-71
2022/08/20 01:55:39;;;;;;;10.57;8.47;;;;;;;;;;5074347;28;20805;-71
2022/08/20 01:58:06;;;;;;;9.30;7.97;;;;;;;;;;5074484;28;20451;-71
2022/08/20 02:00:35;;;;;;;8.83;7.50;;;;;;;;;;5074183;28;20828;-71
2022/08/20 02:03:02;;;;;;;9.00;8.07;;;;;;;;;;5074251;28;20502;-71
2022/08/20 02:05:30;;;;;;;7.07;6.30;;;;;;;;;;5073927;28;20460;-71
2022/08/20 02:07:57;;;;;;;12.90;8.13;;;;;;;;;;5074286;28;20459;-71
2022/08/20 02:10:24;;;;;;;10.07;8.20;;;;;;;;;;5074334;28;21004;-71
2022/08/20 02:12:51;;;;;;;8.77;7.87;;;;;;;;;;5074244;28;20472;-71
2022/08/20 02:15:18;;;;;;;9.97;8.87;;;;;;;;;;5073431;28;20505;-71
2022/08/20 02:17:47;;;;;;;13.00;10.40;;;;;;;;;;5074171;28;20550;-71
2022/08/20 02:20:16;;;;;;;9.20;8.20;;;;;;;;;;5074034;28;20551;-71
2022/08/20 02:22:46;;;;;;;8.63;7.33;;;;;;;;;;5074040;28;20984;-71
2022/08/20 02:25:13;;;;;;;10.50;8.90;;;;;;;;;;5073743;28;20460;-71
2022/08/20 02:27:42;;;;;;;8.47;7.63;;;;;;;;;;5073758;28;20455;-71
2022/08/20 02:30:11;;;;;;;9.47;7.07;;;;;;;;;;5073717;28;21026;-71
2022/08/20 02:32:38;;;;;;;10.00;8.80;;;;;;;;;;5073753;28;21039;-71
2022/08/20 02:35:09;;;;;;;12.60;10.10;;;;;;;;;;5073572;28;20451;-71
2022/08/20 02:37:36;;;;;;;13.17;9.30;;;;;;;;;;5073537;28;20826;-72
2022/08/20 02:40:06;;;;;;;10.93;8.53;;;;;;;;;;5073512;28;20458;-72
2022/08/20 02:42:33;;;;;;;11.20;9.70;;;;;;;;;;5073664;28;20525;-72
2022/08/20 02:45:01;;;;;;;10.80;8.80;;;;;;;;;;5073213;28;20463;-72
2022/08/20 02:47:28;;;;;;;10.13;8.43;;;;;;;;;;5073449;28;20460;-72
2022/08/20 02:49:56;;;;;;;11.87;9.47;;;;;;;;;;5073392;28;20853;-72
2022/08/20 02:52:25;;;;;;;11.70;8.60;;;;;;;;;;5073341;28;20506;-72
2022/08/20 02:54:52;;;;;;;9.30;8.30;;;;;;;;;;5073062;28;20451;-72
2022/08/20 02:57:20;;;;;;;10.20;9.20;;;;;;;;;;5073508;28;20448;-71
2022/08/20 02:59:47;;;;;;;13.63;9.17;;;;;;;;;;5073281;28;20514;-71
2022/08/20 03:02:15;;;;;;;8.93;7.50;;;;;;;;;;5073235;28;20454;-71
2022/08/20 03:04:42;;;;;;;10.90;7.87;;;;;;;;;;5072844;28;20964;-72
2022/08/20 03:07:10;;;;;;;11.03;8.13;;;;;;;;;;5073345;28;20455;-71
2022/08/20 03:09:39;;;;;;;11.40;7.93;;;;;;;;;;5073144;28;21007;-71
2022/08/20 03:12:06;;;;;;;9.40;8.20;;;;;;;;;;5073545;28;20449;-71
2022/08/20 03:14:33;;;;;;;9.40;7.43;;;;;;;;;;5072453;28;20482;-71
2022/08/20 03:17:00;;;;;;;9.33;8.23;;;;;;;;;;5073211;28;20458;-71
2022/08/20 03:19:28;;;;;;;8.93;7.50;;;;;;;;;;5072875;28;20459;-71
2022/08/20 03:21:55;;;;;;;11.47;7.63;;;;;;;;;;5073313;28;20953;-71
2022/08/20 03:24:22;;;;;;;10.53;7.43;;;;;;;;;;5072684;28;20494;-71
2022/08/20 03:26:51;;;;;;;11.63;8.43;;;;;;;;;;5073123;28;20455;-71
2022/08/20 03:29:18;;;;;;;9.10;7.60;;;;;;;;;;5077165;28;20458;-72
2022/08/20 03:31:45;;;;;;;8.70;6.80;;;;;;;;;;5093210;28;20482;-72
2022/08/20 03:34:12;;;;;;;8.53;7.10;;;;;;;;;;5092843;28;20466;-71
2022/08/20 03:36:39;;;;;;;9.17;8.27;;;;;;;;;;5093254;28;20852;-71
2022/08/20 03:39:10;;;;;;;9.17;8.23;;;;;;;;;;5093187;28;20451;-72
2022/08/20 03:41:38;;;;;;;9.13;7.30;;;;;;;;;;5091580;28;20867;-71
2022/08/20 03:44:06;;;;;;;10.03;7.50;;;;;;;;;;5092566;28;20513;-71
2022/08/20 03:46:33;;;;;;;8.17;7.37;;;;;;;;;;5092346;28;20517;-71
2022/08/20 03:49:00;;;;;;;7.10;5.97;;;;;;;;;;5092960;28;20454;-71
2022/08/20 03:51:28;;;;;;;7.20;6.50;;;;;;;;;;5092784;28;21006;-71
2022/08/20 03:53:55;;;;;;;8.90;6.20;;;;;;;;;;5092007;28;20486;-71
2022/08/20 03:56:22;;;;;;;8.90;6.87;;;;;;;;;;5092531;28;20451;-71
2022/08/20 03:58:49;;;;;;;8.47;7.67;;;;;;;;;;5092789;28;20443;-71
2022/08/20 04:01:18;;;;;;;8.83;7.87;;;;;;;;;;5092802;28;20454;-71
2022/08/20 04:03:46;;;;;;;7.03;6.33;;;;;;;;;;5092439;28;20475;-71
2022/08/20 04:06:13;;;;;;;10.87;9.10;;;;;;;;;;5094556;28;20454;-71
2022/08/20 04:08:40;;;;;;;7.80;7.00;;;;;;;;;;5096593;28;20446;-71
2022/08/20 04:11:08;;;;;;;7.10;6.10;;;;;;;;;;5096597;28;20489;-71
2022/08/20 04:13:35;;;;;;;8.30;7.20;;;;;;;;;;5096127;28;21011;-71
2022/08/20 04:16:07;;;;;;;8.57;7.00;;;;;;;;;;5095983;28;20450;-71
2022/08/20 04:18:36;;;;;;;8.37;7.30;;;;;;;;;;5096364;28;20473;-71
2022/08/20 04:21:04;;;;;;;7.47;6.67;;;;;;;;;;5096624;28;20516;-71
2022/08/20 04:23:32;;;;;;;8.50;7.67;;;;;;;;;;5096055;28;20555;-71
2022/08/20 04:25:59;;;;;;;9.23;8.03;;;;;;;;;;5096236;28;20454;-71
2022/08/20 04:28:27;;;;;;;12.07;8.20;;;;;;;;;;5096214;28;20456;-71
2022/08/20 04:30:54;;;;;;;11.40;7.80;;;;;;;;;;5096403;28;20529;-71
2022/08/20 04:33:23;;;;;;;9.70;8.70;;;;;;;;;;5096098;28;20478;-71
2022/08/20 04:35:51;;;;;;;8.23;7.43;;;;;;;;;;5095923;28;20462;-71
2022/08/20 04:38:19;;;;;;;10.80;8.67;;;;;;;;;;5096003;28;20909;-71
2022/08/20 04:40:57;;;;;;;12.20;9.17;;;;;;;;;;5096113;28;20823;-71
2022/08/20 04:43:25;;;;;;;10.13;7.90;;;;;;;;;;5095811;28;20478;-71
2022/08/20 04:45:53;;;;;;;9.50;8.43;;;;;;;;;;5095597;28;20463;-71
2022/08/20 04:48:22;;;;;;;13.83;8.17;;;;;;;;;;5096077;28;20447;-71
2022/08/20 04:50:50;;;;;;;9.23;8.23;;;;;;;;;;5095986;28;20486;-71
2022/08/20 04:53:19;;;;;;;12.17;9.90;;;;;;;;;;5095675;28;20482;-71
2022/08/20 04:55:47;;;;;;;10.00;7.93;;;;;;;;;;5095784;28;20454;-71
2022/08/20 04:58:16;;;;;;;9.50;7.97;;;;;;;;;;5095616;28;20537;-71
2022/08/20 05:00:46;;;;;;;11.33;8.27;;;;;;;;;;5095733;28;20786;-72
2022/08/20 05:03:14;;;;;;;9.83;8.30;;;;;;;;;;5095634;28;20532;-71
2022/08/20 05:05:41;;;;;;;10.27;9.17;;;;;;;;;;5095613;28;20504;-71
2022/08/20 05:08:09;;;;;;;14.83;9.10;;;;;;;;;;5095786;28;20446;-71
2022/08/20 05:10:37;;;;;;;11.00;9.37;;;;;;;;;;5095480;28;20483;-71
2022/08/20 05:13:04;;;;;;;11.00;8.67;;;;;;;;;;5095435;28;20478;-71
2022/08/20 05:15:32;;;;;;;11.50;9.23;;;;;;;;;;5094834;28;20451;-71
2022/08/20 05:18:01;;;;;;;13.10;8.90;;;;;;;;;;5095448;28;20447;-72
2022/08/20 05:20:30;;;;;;;9.40;8.50;;;;;;;;;;5095307;28;20476;-72
2022/08/20 05:22:57;;;;;;;13.20;9.23;;;;;;;;;;5095330;28;20561;-71
2022/08/20 05:25:28;;;;;;;11.70;10.50;;;;;;;;;;5095048;28;21017;-71
2022/08/20 05:27:59;;;;;;;14.10;9.30;;;;;;;;;;5095403;28;20447;-71
2022/08/20 05:30:26;;;;;;;12.80;9.17;;;;;;;;;;5095045;28;20483;-71
2022/08/20 05:32:54;;;;;;;10.43;9.33;;;;;;;;;;5095404;28;20975;-71
2022/08/20 05:35:21;;;;;;;12.63;9.17;;;;;;;;;;5095143;28;20450;-72
2022/08/20 05:37:48;;;;;;;12.07;9.70;;;;;;;;;;5095094;28;20446;-71
2022/08/20 05:40:16;;;;;;;15.43;10.60;;;;;;;;;;5095046;28;20446;-72
2022/08/20 05:42:43;;;;;;;11.63;9.10;;;;;;;;;;5095022;28;20967;-71
2022/08/20 05:45:11;;;;;;;11.30;9.77;;;;;;;;;;5094544;28;20459;-71
2022/08/20 05:47:40;;;;;;;11.87;9.23;;;;;;;;;;5094822;28;20462;-71
2022/08/20 05:50:08;;;;;;;14.37;10.53;;;;;;;;;;5094879;28;20462;-71
2022/08/20 05:52:36;;;;;;;11.10;10.00;;;;;;;;;;5094802;28;20458;-71
2022/08/20 05:55:03;;;;;;;12.53;9.80;;;;;;;;;;5094748;28;20468;-71
2022/08/20 05:57:30;;;;;;;11.53;9.43;;;;;;;;;;5094724;28;20447;-71
2022/08/20 05:59:57;;;;;;;10.13;8.70;;;;;;;;;;5094542;28;20450;-71
2022/08/20 06:05:10;;;;;;;11.07;9.93;;;;;;;;;;5094566;28;20427;-71
2022/08/20 06:07:38;;;;;;;10.67;8.83;;;;;;;;;;5094460;28;20835;-71
2022/08/20 06:10:06;;;;;;;11.23;10.03;;;;;;;;;;5094518;28;20523;-71
2022/08/20 06:12:33;;;;;;;10.57;9.47;;;;;;;;;;5094286;28;20503;-71
2022/08/20 06:15:01;;;;;;;13.03;10.30;;;;;;;;;;5094071;28;20952;-71
2022/08/20 06:17:32;;;;;;;11.07;9.93;;;;;;;;;;5094379;28;20794;-71
2022/08/20 06:20:02;;;;;;;13.00;11.00;;;;;;;;;;5094436;28;20469;-71
2022/08/20 06:22:29;;;;;;;9.80;8.80;;;;;;;;;;5094234;28;20442;-71
2022/08/20 06:24:56;;;;;;;10.93;9.83;;;;;;;;;;5094017;28;20458;-71
2022/08/20 06:27:23;;;;;;;12.93;10.67;;;;;;;;;;5094134;28;20450;-71
2022/08/20 06:29:51;;;;;;;13.83;9.53;;;;;;;;;;5093703;28;20454;-71
2022/08/20 06:32:18;;;;;;;15.83;9.37;;;;;;;;;;5094221;28;20483;-72
2022/08/20 06:34:47;;;;;;;14.87;9.90;;;;;;;;;;5094055;28;20506;-72
2022/08/20 06:37:16;;;;;;;12.40;10.70;;;;;;;;;;5093870;28;20499;-72
2022/08/20 06:39:43;;;;;;;11.20;9.97;;;;;;;;;;5093992;28;20459;-72
2022/08/20 06:42:11;;;;;;;13.47;11.67;;;;;;;;;;5094129;28;20449;-72
2022/08/20 06:44:38;;;;;;;12.80;10.33;;;;;;;;;;5093379;28;20486;-72
2022/08/20 06:47:05;;;;;;;12.70;10.40;;;;;;;;;;5093904;28;20443;-72
2022/08/20 06:49:35;;;;;;;11.37;9.07;;;;;;;;;;5093870;28;20485;-72
2022/08/20 06:52:04;;;;;;;11.23;10.07;;;;;;;;;;5093837;28;20548;-72
2022/08/20 06:54:31;;;;;;;13.20;10.80;;;;;;;;;;5093351;28;20474;-72
2022/08/20 06:56:58;;;;;;;13.83;10.90;;;;;;;;;;5093767;28;20814;-72
2022/08/20 06:59:25;;;;;;;16.73;11.70;;;;;;;;;;5093849;28;20455;-72
2022/08/20 07:01:53;;;;;;;14.80;11.70;;;;;;;;;;5093496;28;20443;-72
2022/08/20 07:04:20;;;;;;;14.10;11.47;;;;;;;;;;5093086;28;20474;-73
2022/08/20 07:06:50;;;;;;;12.97;11.20;;;;;;;;;;5093555;28;20856;-73
2022/08/20 07:09:18;;;;;;;14.90;11.53;;;;;;;;;;5093429;28;20459;-73
2022/08/20 07:11:47;;;;;;;13.37;10.30;;;;;;;;;;5093319;28;20587;-73
2022/08/20 07:14:14;;;;;;;12.43;11.00;;;;;;;;;;5092840;28;20523;-73
2022/08/20 07:16:41;;;;;;;18.00;12.73;;;;;;;;;;5093240;28;20462;-73
2022/08/20 07:19:08;;;;;;;17.87;14.30;;;;;;;;;;5093322;28;20455;-73
2022/08/20 07:21:36;;;;;;;18.40;14.07;;;;;;;;;;5093246;28;20443;-73
2022/08/20 07:24:03;;;;;;;15.13;12.87;;;;;;;;;;5093356;28;20982;-72
2022/08/20 07:26:31;;;;;;;19.83;14.13;;;;;;;;;;5086729;28;20551;-73
2022/08/20 07:28:59;;;;;;;22.67;13.83;;;;;;;;;;5083623;28;20450;-72
2022/08/20 07:34:11;;;;;;;16.93;14.40;;;;;;;;;;5083458;28;20433;-72
2022/08/20 07:36:39;;;;;;;15.47;13.80;;;;;;;;;;5082315;28;20819;-72
2022/08/20 07:39:06;;;;;;;17.10;13.90;;;;;;;;;;5081895;28;20443;-73
2022/08/20 07:41:34;;;;;;;14.57;13.00;;;;;;;;;;5085997;28;20814;-72
2022/08/20 07:44:02;;;;;;;16.83;14.90;;;;;;;;;;5083178;28;20463;-72
2022/08/20 07:46:30;;;;;;;15.20;13.70;;;;;;;;;;5085144;28;20467;-72
2022/08/20 07:48:57;;;;;;;15.23;13.57;;;;;;;;;;5084695;28;20451;-72
2022/08/20 07:51:24;;;;;;;15.00;13.43;;;;;;;;;;5075122;28;21034;-73
2022/08/20 07:53:51;;;;;;;14.40;12.63;;;;;;;;;;5075223;28;20494;-73
2022/08/20 07:56:20;;;;;;;14.07;12.63;;;;;;;;;;5075318;28;20972;-73
2022/08/20 07:58:49;;;;;;;16.33;13.40;;;;;;;;;;5075335;28;20509;-72
2022/08/20 08:01:17;;;;;;;16.43;14.73;;;;;;;;;;5075328;28;20956;-72
2022/08/20 08:03:44;;;;;;;17.87;15.50;;;;;;;;;;5075024;28;20479;-72
2022/08/20 08:06:12;;;;;;;18.63;16.37;;;;;;;;;;5075030;28;20459;-72
2022/08/20 08:08:39;;;;;;;19.43;16.53;;;;;;;;;;5075060;28;20474;-72
2022/08/20 08:11:07;;;;;;;21.57;17.97;;;;;;;;;;5075310;28;20951;-72
2022/08/20 08:13:35;;;;;;;25.33;20.30;;;;;;;;;;5074584;28;20472;-72
2022/08/20 08:16:05;;;;;;;23.93;20.23;;;;;;;;;;5073551;28;20477;-72
2022/08/20 08:18:35;;;;;;;23.20;17.80;;;;;;;;;;5074921;28;20447;-72
2022/08/20 08:21:02;;;;;;;26.27;19.90;;;;;;;;;;5074783;28;20459;-72
2022/08/20 08:23:30;;;;;;;27.30;20.93;;;;;;;;;;5074529;28;20478;-72
2022/08/20 08:25:58;;;;;;;23.30;20.67;;;;;;;;;;5074871;28;20963;-72
2022/08/20 08:28:28;;;;;;;24.47;21.60;;;;;;;;;;5074566;28;20546;-72
2022/08/20 08:30:55;;;;;;;22.73;20.17;;;;;;;;;;5074845;28;20506;-72
2022/08/20 08:33:28;;;;;;;24.27;20.77;;;;;;;;;;5074292;28;20554;-72
2022/08/20 08:35:55;;;;;;;24.27;19.67;;;;;;;;;;5074527;28;20454;-72
2022/08/20 08:38:23;;;;;;;28.43;20.87;;;;;;;;;;5074554;28;20980;-72
2022/08/20 08:40:53;;;;;;;23.20;19.80;;;;;;;;;;5074762;28;20451;-72
2022/08/20 08:43:20;;;;;;;27.00;20.60;;;;;;;;;;5074193;28;20479;-72
2022/08/20 08:45:50;;;;;;;25.00;20.33;;;;;;;;;;5074080;28;21003;-72
2022/08/20 08:48:20;;;;;;;20.00;16.77;;;;;;;;;;5074402;28;20949;-72
2022/08/20 08:50:51;;;;;;;23.33;18.33;;;;;;;;;;5080070;28;20549;-72
2022/08/20 08:53:19;;;;;;;21.50;18.57;;;;;;;;;;5093876;28;21019;-72
2022/08/20 08:55:46;;;;;;;19.27;17.27;;;;;;;;;;5094400;28;20450;-72
2022/08/20 08:58:14;;;;;;;20.63;18.53;;;;;;;;;;5094063;28;20455;-72
2022/08/20 09:00:41;;;;;;;20.70;18.50;;;;;;;;;;5094448;28;20462;-72
2022/08/20 09:03:10;;;;;;;23.17;18.47;;;;;;;;;;5093620;28;20463;-72
2022/08/20 09:05:39;;;;;;;24.27;19.80;;;;;;;;;;5093660;28;20942;-72
2022/08/20 09:08:08;;;;;;;21.30;19.00;;;;;;;;;;5094248;28;20454;-72
2022/08/20 09:10:35;;;;;;;20.43;18.13;;;;;;;;;;5094020;28;20453;-72
2022/08/20 09:13:02;;;;;;;24.70;19.57;;;;;;;;;;5093987;28;20490;-72
2022/08/20 09:15:30;;;;;;;21.60;19.30;;;;;;;;;;5093135;28;20461;-72
2022/08/20 09:17:57;;;;;;;22.67;17.80;;;;;;;;;;5094330;28;20458;-72
2022/08/20 09:20:24;;;;;;;23.87;19.40;;;;;;;;;;5093790;28;20461;-72
2022/08/20 09:22:51;;;;;;;19.70;17.60;;;;;;;;;;5089588;28;20470;-72
2022/08/20 09:25:20;;;;;;;20.97;17.60;;;;;;;;;;5084837;28;20454;-72
2022/08/20 09:27:47;;;;;;;19.23;17.17;;;;;;;;;;5084921;28;20444;-72
2022/08/20 09:30:15;;;;;;;21.97;19.13;;;;;;;;;;5093954;28;20940;-72
2022/08/20 09:32:43;;;;;;;24.80;18.47;;;;;;;;;;5093502;28;20490;-72
2022/08/20 09:35:10;;;;;;;23.03;19.90;;;;;;;;;;5093536;28;20800;-72
2022/08/20 09:37:37;;;;;;;21.70;19.10;;;;;;;;;;5093584;28;20548;-72
2022/08/20 09:40:06;;;;;;;20.53;18.33;;;;;;;;;;5093843;28;20451;-72
2022/08/20 09:42:35;;;;;;;23.53;18.23;;;;;;;;;;5093599;28;20482;-72
2022/08/20 09:45:02;;;;;;;19.90;17.93;;;;;;;;;;5085063;28;20564;-72
2022/08/20 09:47:29;;;;;;;20.50;18.27;;;;;;;;;;5084737;28;20510;-72
2022/08/20 09:49:56;;;;;;;18.80;16.70;;;;;;;;;;5083184;28;20443;-73
2022/08/20 09:52:25;;;;;;;21.60;19.30;;;;;;;;;;5082384;28;20503;-73
2022/08/20 09:54:53;;;;;;;21.40;18.27;;;;;;;;;;5082425;28;20738;-73
2022/08/20 09:57:20;;;;;;;21.20;18.40;;;;;;;;;;5084992;28;20546;-73
2022/08/20 09:59:52;;;;;;;22.77;19.13;;;;;;;;;;5082365;28;20444;-73
2022/08/20 10:02:19;;;;;;;22.20;19.80;;;;;;;;;;5074380;28;20451;-73
2022/08/20 10:04:46;;;;;;;24.20;19.90;;;;;;;;;;5083730;28;20475;-73
2022/08/20 10:07:13;;;;;;;24.07;21.20;;;;;;;;;;5094245;28;20454;-73
2022/08/20 10:09:40;;;;;;;22.43;18.30;;;;;;;;;;5094557;28;20451;-73
2022/08/20 10:12:08;;;;;;;21.07;18.40;;;;;;;;;;5094864;28;20842;-73
2022/08/20 10:14:35;;;;;;;22.90;18.27;;;;;;;;;;5094905;28;20478;-73
2022/08/20 10:17:04;;;;;;;20.47;17.63;;;;;;;;;;5095071;28;20461;-74
2022/08/20 10:19:32;;;;;;;18.43;16.40;;;;;;;;;;5094708;28;20920;-73
2022/08/20 10:21:59;;;;;;;22.53;17.57;;;;;;;;;;5095092;28;20430;-73
2022/08/20 10:24:27;;;;;;;19.13;17.07;;;;;;;;;;5090711;28;20968;-73
2022/08/20 10:26:55;;;;;;;20.20;17.50;;;;;;;;;;5074160;28;20448;-73
2022/08/20 10:29:22;;;;;;;20.03;17.80;;;;;;;;;;5074125;28;20447;-74
2022/08/20 10:31:50;;;;;;;17.87;15.67;;;;;;;;;;5074109;28;20447;-74
2022/08/20 10:34:18;;;;;;;20.87;16.30;;;;;;;;;;5079423;28;20471;-74
2022/08/20 10:36:46;;;;;;;20.47;16.30;;;;;;;;;;5091476;28;20442;-74
2022/08/20 10:39:13;;;;;;;17.57;14.67;;;;;;;;;;5084335;28;20468;-75
2022/08/20 10:41:40;;;;;;;19.80;17.10;;;;;;;;;;5087724;28;20488;-75
2022/08/20 10:44:08;;;;;;;19.77;16.63;;;;;;;;;;5073260;28;20475;-74
2022/08/20 10:46:35;;;;;;;16.10;14.13;;;;;;;;;;5073705;28;21347;-74
2022/08/20 10:49:02;;;;;;;14.37;12.87;;;;;;;;;;5072741;28;20463;-75
2022/08/20 10:51:31;;;;;;;15.57;13.27;;;;;;;;;;5073092;28;20547;-74
2022/08/20 10:53:59;;;;;;;14.97;13.43;;;;;;;;;;5073273;28;20608;-74
2022/08/20 10:56:26;;;;;;;16.30;13.20;;;;;;;;;;5073392;28;20451;-75
2022/08/20 10:58:53;;;;;;;17.70;14.57;;;;;;;;;;5073234;28;20451;-75
2022/08/20 11:01:20;;;;;;;13.80;12.40;;;;;;;;;;5073339;28;20971;-74
2022/08/20 11:03:47;;;;;;;19.47;13.77;;;;;;;;;;5073143;28;20988;-75
2022/08/20 11:06:14;;;;;;;16.97;15.20;;;;;;;;;;5073218;28;20479;-75
2022/08/20 11:08:43;;;;;;;16.10;14.40;;;;;;;;;;5073341;28;20462;-75
2022/08/20 11:11:10;;;;;;;14.03;12.70;;;;;;;;;;5073298;28;20459;-75
2022/08/20 11:13:37;;;;;;;16.33;14.63;;;;;;;;;;5075222;28;20493;-75
2022/08/20 11:16:05;;;;;;;15.97;14.37;;;;;;;;;;5081665;28;20808;-74
2022/08/20 11:18:32;;;;;;;15.43;13.80;;;;;;;;;;5079970;28;20933;-75
2022/08/20 11:21:00;;;;;;;16.27;11.93;;;;;;;;;;5073121;28;20455;-74
2022/08/20 11:23:28;;;;;;;13.57;12.13;;;;;;;;;;5072811;28;21015;-75
2022/08/20 11:25:57;;;;;;;12.90;10.90;;;;;;;;;;5073142;28;20452;-74
2022/08/20 11:28:25;;;;;;;14.03;12.53;;;;;;;;;;5072898;28;20501;-75
2022/08/20 11:30:53;;;;;;;13.70;12.40;;;;;;;;;;5073125;28;20509;-74
2022/08/20 11:33:20;;;;;;;15.60;13.20;;;;;;;;;;5072740;28;20498;-75
2022/08/20 11:35:47;;;;;;;15.30;13.80;;;;;;;;;;5073226;28;20808;-75
2022/08/20 11:38:14;;;;;;;13.87;12.33;;;;;;;;;;5072948;28;20451;-75
2022/08/20 11:40:41;;;;;;;13.23;11.87;;;;;;;;;;5072958;28;20448;-74
2022/08/20 11:43:10;;;;;;;14.60;13.17;;;;;;;;;;5072945;28;20479;-74
2022/08/20 11:45:37;;;;;;;13.37;12.07;;;;;;;;;;5072420;28;20474;-74
2022/08/20 11:48:05;;;;;;;14.87;12.70;;;;;;;;;;5072842;28;20454;-74
2022/08/20 11:50:32;;;;;;;15.17;13.50;;;;;;;;;;5072827;28;20455;-74
2022/08/20 11:52:59;;;;;;;16.43;14.70;;;;;;;;;;5072763;28;20875;-74
2022/08/20 11:55:26;;;;;;;14.80;13.33;;;;;;;;;;5072550;28;20957;-75
2022/08/20 11:57:53;;;;;;;15.77;14.00;;;;;;;;;;5072832;28;20452;-75
2022/08/20 12:00:24;;;;;;;15.67;13.20;;;;;;;;;;5072404;28;20463;-74
2022/08/20 12:02:51;;;;;;;16.27;14.57;;;;;;;;;;5072707;28;20468;-74
2022/08/20 12:05:19;;;;;;;14.90;12.83;;;;;;;;;;5072481;28;20505;-74
2022/08/20 12:07:46;;;;;;;15.37;13.77;;;;;;;;;;5072698;28;20447;-74
2022/08/20 12:10:13;;;;;;;17.50;15.47;;;;;;;;;;5072803;28;20447;-74
2022/08/20 12:12:40;;;;;;;16.43;14.73;;;;;;;;;;5072592;28;20833;-74
2022/08/20 12:15:09;;;;;;;15.53;14.00;;;;;;;;;;5072370;28;20826;-74
2022/08/20 12:17:38;;;;;;;15.93;14.33;;;;;;;;;;5072539;28;20452;-74
2022/08/20 12:20:07;;;;;;;14.63;13.10;;;;;;;;;;5072671;28;20487;-74
2022/08/20 12:22:34;;;;;;;16.40;14.70;;;;;;;;;;5072635;28;20448;-75
2022/08/20 12:25:01;;;;;;;14.03;12.60;;;;;;;;;;5072242;28;20448;-75
2022/08/20 12:27:29;;;;;;;16.73;15.03;;;;;;;;;;5074597;28;20848;-74
2022/08/20 12:29:57;;;;;;;15.87;14.30;;;;;;;;;;5076243;28;20451;-74
2022/08/20 12:32:26;;;;;;;15.77;14.20;;;;;;;;;;5076124;28;20451;-75
2022/08/20 12:34:55;;;;;;;14.67;13.10;;;;;;;;;;5076038;28;20447;-75
2022/08/20 12:37:24;;;;;;;17.10;14.00;;;;;;;;;;5075950;28;20447;-75
2022/08/20 12:39:52;;;;;;;16.03;14.10;;;;;;;;;;5076110;28;20508;-75
2022/08/20 12:42:20;;;;;;;15.40;13.87;;;;;;;;;;5075824;28;20452;-75
2022/08/20 12:44:47;;;;;;;17.97;16.07;;;;;;;;;;5075532;28;20476;-75
2022/08/20 12:47:16;;;;;;;17.07;14.83;;;;;;;;;;5076127;28;20462;-75
2022/08/20 12:49:45;;;;;;;16.93;15.23;;;;;;;;;;5075908;28;20473;-75
2022/08/20 12:52:13;;;;;;;15.50;13.90;;;;;;;;;;5075806;28;20505;-75
2022/08/20 12:54:41;;;;;;;17.37;15.57;;;;;;;;;;5075527;28;20819;-75
2022/08/20 12:57:13;;;;;;;16.03;14.33;;;;;;;;;;5075640;28;20458;-75
2022/08/20 12:59:40;;;;;;;18.23;16.30;;;;;;;;;;5075173;28;20447;-75
2022/08/20 13:02:08;;;;;;;16.50;14.60;;;;;;;;;;5075947;28;20825;-74
2022/08/20 13:04:35;;;;;;;17.70;15.90;;;;;;;;;;5075191;28;20467;-76
2022/08/20 13:07:02;;;;;;;16.63;14.93;;;;;;;;;;5075673;28;20463;-75
2022/08/20 13:09:31;;;;;;;17.50;15.90;;;;;;;;;;5075486;28;20484;-74
2022/08/20 13:11:58;;;;;;;18.20;16.33;;;;;;;;;;5076934;28;20501;-73
2022/08/20 13:14:26;;;;;;;18.50;16.60;;;;;;;;;;5086771;28;20494;-73
2022/08/20 13:16:57;;;;;;;18.57;16.43;;;;;;;;;;5083738;28;20448;-75
2022/08/20 13:19:25;;;;;;;24.67;16.20;;;;;;;;;;5075267;28;20452;-73
2022/08/20 13:21:52;;;;;;;18.73;16.73;;;;;;;;;;5075930;28;20464;-74
2022/08/20 13:24:20;;;;;;;18.63;16.73;;;;;;;;;;5075498;28;20499;-73
2022/08/20 13:26:49;;;;;;;24.40;16.40;;;;;;;;;;5075820;28;20809;-73
2022/08/20 13:29:16;;;;;;;17.97;16.07;;;;;;;;;;5075095;28;20817;-72
2022/08/20 13:31:43;;;;;;;19.83;17.57;;;;;;;;;;5075043;28;20448;-72
2022/08/20 13:34:11;;;;;;;19.23;17.40;;;;;;;;;;5074611;28;20488;-72
2022/08/20 13:36:39;;;;;;;23.37;16.50;;;;;;;;;;5074907;28;20451;-72
2022/08/20 13:39:07;;;;;;;17.97;16.20;;;;;;;;;;5073578;28;20482;-75
2022/08/20 13:41:35;;;;;;;19.97;17.10;;;;;;;;;;5075110;28;20479;-72
2022/08/20 13:44:03;;;;;;;18.33;15.33;;;;;;;;;;5074497;28;20468;-72
2022/08/20 13:46:30;;;;;;;18.60;16.10;;;;;;;;;;5074670;28;20817;-72
2022/08/20 13:48:57;;;;;;;19.63;17.63;;;;;;;;;;5074896;28;20463;-73
2022/08/20 13:51:25;;;;;;;18.20;16.30;;;;;;;;;;5074759;28;20459;-73
2022/08/20 13:53:52;;;;;;;16.20;14.60;;;;;;;;;;5074441;28;20583;-72
2022/08/20 13:56:19;;;;;;;17.63;15.77;;;;;;;;;;5074752;28;20451;-74
2022/08/20 13:58:46;;;;;;;19.17;17.10;;;;;;;;;;5074466;28;20454;-74
2022/08/20 14:01:15;;;;;;;17.60;15.77;;;;;;;;;;5074664;28;20827;-73
2022/08/20 14:03:42;;;;;;;16.07;14.50;;;;;;;;;;5074294;28;20813;-73
2022/08/20 14:06:09;;;;;;;17.30;15.37;;;;;;;;;;5074372;28;20452;-73
2022/08/20 14:08:37;;;;;;;17.93;16.17;;;;;;;;;;5074179;28;20493;-73
2022/08/20 14:11:04;;;;;;;17.67;13.63;;;;;;;;;;5074239;28;20459;-73
2022/08/20 14:13:31;;;;;;;15.77;14.30;;;;;;;;;;5073717;28;20492;-74
2022/08/20 14:15:58;;;;;;;14.43;12.93;;;;;;;;;;5074333;28;20905;-73
2022/08/20 14:18:27;;;;;;;12.03;10.83;;;;;;;;;;5074103;28;20447;-74
2022/08/20 14:20:54;;;;;;;14.93;13.40;;;;;;;;;;5074285;28;20452;-73
2022/08/20 14:23:21;;;;;;;16.50;14.67;;;;;;;;;;5073751;28;20459;-74
2022/08/20 14:25:49;;;;;;;21.50;15.40;;;;;;;;;;5073782;28;20791;-73
2022/08/20 14:28:17;;;;;;;16.47;14.57;;;;;;;;;;5073842;28;20460;-73
2022/08/20 14:30:44;;;;;;;15.10;13.40;;;;;;;;;;5073921;28;20534;-73
2022/08/20 14:33:11;;;;;;;15.83;14.13;;;;;;;;;;5073804;28;20495;-73
2022/08/20 14:35:40;;;;;;;14.93;13.40;;;;;;;;;;5073655;28;20452;-73
2022/08/20 14:38:07;;;;;;;14.90;13.40;;;;;;;;;;5074066;28;20945;-73